MET'MAP v2.0
soon released !

Expected late october,
this new version will be
more efficient, smarter,
and hosted on a brand new
server x3 powerfull...
...and still free !


Not compatible ?
Try the mobile version !

LOG IN : | Subscribe | Disclaimer | Who is Orbifly ? |
ICAO code :

TAF - UMBB Brest - 26 May 2020 00:03 UTC - Data Source NOAA   


- Airport Elevation : 468 ft
- IATA code : BQT
- No reported NOTAMs.


UMBB - Brest

Latest METAR recorded : 2015/08/11 08:00 UMBB 110800Z 11002MPS 7000 NSC 28/17 Q1016 R11/CLRD// NOSIG
TAF TAF UMBB
Valid from the 25 at 15:00 until the 26 at 00:00 UTC


251400Z 2515/2524 VRB02MPS 6000 BKN020
TEMPO 2515/2518 2100 -SHRA BKN007 SCT015CB

Source NOAA


MET'MAP, your aeronautical weather chart ! - Copyright ORBIFLY December 2007

Programming & Development : Alexandra Zaïnal
Co-Developer : Marc-Olivier Méhu
Technical & hardware support : Manuel Goepfert
Concept & Financing : Baudouin d'Aumeries